sensor_id;sensor_type;location;lat;lon;timestamp;P1;durP1;ratioP1;P2;durP2;ratioP2
28007;SDS011;15333;50.010;20.020;2023-03-17T00:01:17;79.13;;;36.47;;
28007;SDS011;15333;50.010;20.020;2023-03-17T00:04:20;83.53;;;37.25;;
28007;SDS011;15333;50.010;20.020;2023-03-17T00:07:23;76.95;;;37.10;;
28007;SDS011;15333;50.010;20.020;2023-03-17T00:10:24;76.85;;;35.53;;
28007;SDS011;15333;50.010;20.020;2023-03-17T00:13:26;76.07;;;37.55;;
28007;SDS011;15333;50.010;20.020;2023-03-17T00:16:28;82.45;;;38.67;;
28007;SDS011;15333;50.010;20.020;2023-03-17T00:19:34;69.95;;;34.28;;
28007;SDS011;15333;50.010;20.020;2023-03-17T00:22:35;75.13;;;36.17;;
28007;SDS011;15333;50.010;20.020;2023-03-17T00:25:36;86.40;;;38.45;;
28007;SDS011;15333;50.010;20.020;2023-03-17T00:28:42;88.45;;;38.65;;
28007;SDS011;15333;50.010;20.020;2023-03-17T00:31:44;84.30;;;38.53;;
28007;SDS011;15333;50.010;20.020;2023-03-17T00:34:45;87.22;;;40.25;;
28007;SDS011;15333;50.010;20.020;2023-03-17T00:37:47;84.95;;;39.88;;
28007;SDS011;15333;50.010;20.020;2023-03-17T00:40:49;84.65;;;39.35;;
28007;SDS011;15333;50.010;20.020;2023-03-17T00:43:50;84.88;;;41.60;;
28007;SDS011;15333;50.010;20.020;2023-03-17T00:46:52;83.68;;;40.10;;
28007;SDS011;15333;50.010;20.020;2023-03-17T00:49:53;80.88;;;38.97;;
28007;SDS011;15333;50.010;20.020;2023-03-17T00:52:55;86.22;;;41.40;;
28007;SDS011;15333;50.010;20.020;2023-03-17T00:55:57;90.15;;;39.95;;
28007;SDS011;15333;50.010;20.020;2023-03-17T00:58:58;78.35;;;37.60;;
28007;SDS011;15333;50.010;20.020;2023-03-17T01:01:59;93.05;;;41.28;;
28007;SDS011;15333;50.010;20.020;2023-03-17T01:05:01;91.60;;;40.22;;
28007;SDS011;15333;50.010;20.020;2023-03-17T01:08:02;84.53;;;40.05;;
28007;SDS011;15333;50.010;20.020;2023-03-17T01:11:03;100.82;;;43.97;;
28007;SDS011;15333;50.010;20.020;2023-03-17T01:14:04;99.47;;;45.75;;
28007;SDS011;15333;50.010;20.020;2023-03-17T01:17:11;86.53;;;37.58;;
28007;SDS011;15333;50.010;20.020;2023-03-17T01:23:43;82.65;;;39.67;;
28007;SDS011;15333;50.010;20.020;2023-03-17T01:26:44;91.25;;;41.13;;
28007;SDS011;15333;50.010;20.020;2023-03-17T01:29:45;89.03;;;39.53;;
28007;SDS011;15333;50.010;20.020;2023-03-17T01:32:46;84.75;;;41.75;;
28007;SDS011;15333;50.010;20.020;2023-03-17T01:35:48;94.47;;;43.13;;
28007;SDS011;15333;50.010;20.020;2023-03-17T01:38:50;84.22;;;40.08;;
28007;SDS011;15333;50.010;20.020;2023-03-17T01:41:51;93.35;;;41.75;;
28007;SDS011;15333;50.010;20.020;2023-03-17T01:45:00;85.47;;;40.45;;
28007;SDS011;15333;50.010;20.020;2023-03-17T01:48:06;87.57;;;39.40;;
28007;SDS011;15333;50.010;20.020;2023-03-17T01:51:09;87.63;;;41.65;;
28007;SDS011;15333;50.010;20.020;2023-03-17T01:54:15;99.80;;;43.70;;
28007;SDS011;15333;50.010;20.020;2023-03-17T02:00:33;92.85;;;41.72;;
28007;SDS011;15333;50.010;20.020;2023-03-17T02:03:34;97.72;;;44.35;;
28007;SDS011;15333;50.010;20.020;2023-03-17T02:06:35;97.43;;;45.20;;
28007;SDS011;15333;50.010;20.020;2023-03-17T02:09:36;88.35;;;43.85;;
28007;SDS011;15333;50.010;20.020;2023-03-17T02:12:37;97.35;;;45.80;;
28007;SDS011;15333;50.010;20.020;2023-03-17T02:15:44;98.10;;;46.47;;
28007;SDS011;15333;50.010;20.020;2023-03-17T02:18:48;99.07;;;46.55;;
28007;SDS011;15333;50.010;20.020;2023-03-17T02:21:53;97.60;;;47.75;;
28007;SDS011;15333;50.010;20.020;2023-03-17T02:24:58;102.95;;;48.92;;
28007;SDS011;15333;50.010;20.020;2023-03-17T02:28:01;106.68;;;48.75;;
28007;SDS011;15333;50.010;20.020;2023-03-17T02:31:09;109.97;;;49.95;;
28007;SDS011;15333;50.010;20.020;2023-03-17T02:34:10;94.93;;;45.72;;
28007;SDS011;15333;50.010;20.020;2023-03-17T02:37:11;100.95;;;49.85;;
28007;SDS011;15333;50.010;20.020;2023-03-17T02:40:13;95.90;;;44.13;;
28007;SDS011;15333;50.010;20.020;2023-03-17T02:43:15;89.72;;;42.35;;
28007;SDS011;15333;50.010;20.020;2023-03-17T02:46:16;105.38;;;48.10;;
28007;SDS011;15333;50.010;20.020;2023-03-17T02:49:17;93.82;;;44.20;;
28007;SDS011;15333;50.010;20.020;2023-03-17T02:52:18;88.45;;;40.90;;
28007;SDS011;15333;50.010;20.020;2023-03-17T02:55:19;86.93;;;41.20;;
28007;SDS011;15333;50.010;20.020;2023-03-17T02:58:20;90.38;;;42.85;;
28007;SDS011;15333;50.010;20.020;2023-03-17T03:01:21;85.40;;;40.67;;
28007;SDS011;15333;50.010;20.020;2023-03-17T03:04:22;84.35;;;41.55;;
28007;SDS011;15333;50.010;20.020;2023-03-17T03:07:24;86.20;;;42.50;;
28007;SDS011;15333;50.010;20.020;2023-03-17T03:10:24;88.30;;;37.92;;
28007;SDS011;15333;50.010;20.020;2023-03-17T03:13:25;78.88;;;39.40;;
28007;SDS011;15333;50.010;20.020;2023-03-17T03:16:26;122.72;;;53.90;;
28007;SDS011;15333;50.010;20.020;2023-03-17T03:19:27;89.15;;;39.15;;
28007;SDS011;15333;50.010;20.020;2023-03-17T03:22:28;75.20;;;36.15;;
28007;SDS011;15333;50.010;20.020;2023-03-17T03:25:30;114.82;;;50.38;;
28007;SDS011;15333;50.010;20.020;2023-03-17T03:28:31;90.10;;;44.83;;
28007;SDS011;15333;50.010;20.020;2023-03-17T03:31:32;80.57;;;36.85;;
28007;SDS011;15333;50.010;20.020;2023-03-17T03:34:33;78.15;;;37.42;;
28007;SDS011;15333;50.010;20.020;2023-03-17T03:37:34;77.70;;;35.78;;
28007;SDS011;15333;50.010;20.020;2023-03-17T03:40:35;73.38;;;35.30;;
28007;SDS011;15333;50.010;20.020;2023-03-17T03:43:37;87.18;;;38.50;;
28007;SDS011;15333;50.010;20.020;2023-03-17T03:46:38;87.80;;;41.53;;
28007;SDS011;15333;50.010;20.020;2023-03-17T03:49:39;103.95;;;42.92;;
28007;SDS011;15333;50.010;20.020;2023-03-17T03:52:40;85.90;;;42.45;;
28007;SDS011;15333;50.010;20.020;2023-03-17T03:55:41;103.22;;;44.25;;
28007;SDS011;15333;50.010;20.020;2023-03-17T03:58:42;93.30;;;43.13;;
28007;SDS011;15333;50.010;20.020;2023-03-17T04:01:43;118.28;;;52.60;;
28007;SDS011;15333;50.010;20.020;2023-03-17T04:04:45;120.90;;;55.42;;
28007;SDS011;15333;50.010;20.020;2023-03-17T04:07:46;129.23;;;58.38;;
28007;SDS011;15333;50.010;20.020;2023-03-17T04:10:47;120.10;;;57.97;;
28007;SDS011;15333;50.010;20.020;2023-03-17T04:13:48;125.22;;;57.30;;
28007;SDS011;15333;50.010;20.020;2023-03-17T04:16:49;138.25;;;60.38;;
28007;SDS011;15333;50.010;20.020;2023-03-17T04:19:50;160.85;;;76.15;;
28007;SDS011;15333;50.010;20.020;2023-03-17T04:22:51;156.60;;;69.35;;
28007;SDS011;15333;50.010;20.020;2023-03-17T04:25:52;160.93;;;73.32;;
28007;SDS011;15333;50.010;20.020;2023-03-17T04:28:53;158.18;;;71.45;;
28007;SDS011;15333;50.010;20.020;2023-03-17T04:31:54;164.07;;;70.97;;
28007;SDS011;15333;50.010;20.020;2023-03-17T04:34:55;153.38;;;70.47;;
28007;SDS011;15333;50.010;20.020;2023-03-17T04:37:57;163.23;;;72.68;;
28007;SDS011;15333;50.010;20.020;2023-03-17T04:40:58;161.05;;;73.63;;
28007;SDS011;15333;50.010;20.020;2023-03-17T04:43:59;162.13;;;74.75;;
28007;SDS011;15333;50.010;20.020;2023-03-17T04:47:00;170.82;;;77.30;;
28007;SDS011;15333;50.010;20.020;2023-03-17T04:50:01;163.68;;;73.22;;
28007;SDS011;15333;50.010;20.020;2023-03-17T04:53:03;162.27;;;74.35;;
28007;SDS011;15333;50.010;20.020;2023-03-17T04:56:05;164.32;;;75.20;;
28007;SDS011;15333;50.010;20.020;2023-03-17T04:59:06;168.52;;;75.75;;
28007;SDS011;15333;50.010;20.020;2023-03-17T05:02:07;168.30;;;75.82;;
28007;SDS011;15333;50.010;20.020;2023-03-17T05:05:08;166.88;;;73.65;;
28007;SDS011;15333;50.010;20.020;2023-03-17T05:08:09;155.20;;;69.50;;
28007;SDS011;15333;50.010;20.020;2023-03-17T05:11:10;171.55;;;73.45;;
28007;SDS011;15333;50.010;20.020;2023-03-17T05:14:12;159.88;;;73.97;;
28007;SDS011;15333;50.010;20.020;2023-03-17T05:17:13;153.85;;;74.22;;
28007;SDS011;15333;50.010;20.020;2023-03-17T05:20:14;161.50;;;71.40;;
28007;SDS011;15333;50.010;20.020;2023-03-17T05:23:15;158.05;;;71.65;;
28007;SDS011;15333;50.010;20.020;2023-03-17T05:26:16;156.00;;;73.50;;
28007;SDS011;15333;50.010;20.020;2023-03-17T05:29:18;148.95;;;69.88;;
28007;SDS011;15333;50.010;20.020;2023-03-17T05:32:19;144.05;;;67.35;;
28007;SDS011;15333;50.010;20.020;2023-03-17T05:35:20;151.40;;;66.90;;
28007;SDS011;15333;50.010;20.020;2023-03-17T05:38:22;154.32;;;70.28;;
28007;SDS011;15333;50.010;20.020;2023-03-17T05:41:23;154.70;;;68.10;;
28007;SDS011;15333;50.010;20.020;2023-03-17T05:44:24;151.32;;;71.35;;
28007;SDS011;15333;50.010;20.020;2023-03-17T05:47:24;141.27;;;67.47;;
28007;SDS011;15333;50.010;20.020;2023-03-17T05:50:26;142.43;;;67.40;;
28007;SDS011;15333;50.010;20.020;2023-03-17T05:53:27;147.30;;;67.15;;
28007;SDS011;15333;50.010;20.020;2023-03-17T05:56:29;145.10;;;69.78;;
28007;SDS011;15333;50.010;20.020;2023-03-17T05:59:32;149.35;;;68.47;;
28007;SDS011;15333;50.010;20.020;2023-03-17T06:02:34;144.52;;;65.63;;
28007;SDS011;15333;50.010;20.020;2023-03-17T06:05:35;127.78;;;58.78;;
28007;SDS011;15333;50.010;20.020;2023-03-17T06:08:37;126.50;;;56.13;;
28007;SDS011;15333;50.010;20.020;2023-03-17T06:11:37;115.60;;;54.38;;
28007;SDS011;15333;50.010;20.020;2023-03-17T06:14:39;124.68;;;56.65;;
28007;SDS011;15333;50.010;20.020;2023-03-17T06:17:39;110.57;;;50.92;;
28007;SDS011;15333;50.010;20.020;2023-03-17T06:20:41;119.35;;;52.45;;
28007;SDS011;15333;50.010;20.020;2023-03-17T06:23:42;122.38;;;52.15;;
28007;SDS011;15333;50.010;20.020;2023-03-17T06:26:43;112.05;;;52.13;;
28007;SDS011;15333;50.010;20.020;2023-03-17T06:29:44;117.55;;;51.97;;
28007;SDS011;15333;50.010;20.020;2023-03-17T06:32:46;111.55;;;46.72;;
28007;SDS011;15333;50.010;20.020;2023-03-17T06:35:46;103.28;;;48.45;;
28007;SDS011;15333;50.010;20.020;2023-03-17T06:38:47;110.10;;;48.00;;
28007;SDS011;15333;50.010;20.020;2023-03-17T06:41:48;101.80;;;46.10;;
28007;SDS011;15333;50.010;20.020;2023-03-17T06:44:50;103.70;;;45.65;;
28007;SDS011;15333;50.010;20.020;2023-03-17T06:47:52;96.55;;;43.85;;
28007;SDS011;15333;50.010;20.020;2023-03-17T06:50:53;103.03;;;43.72;;
28007;SDS011;15333;50.010;20.020;2023-03-17T06:53:54;87.72;;;40.55;;
28007;SDS011;15333;50.010;20.020;2023-03-17T06:56:55;96.65;;;40.22;;
28007;SDS011;15333;50.010;20.020;2023-03-17T06:59:56;81.60;;;36.63;;
28007;SDS011;15333;50.010;20.020;2023-03-17T07:02:57;86.18;;;39.42;;
28007;SDS011;15333;50.010;20.020;2023-03-17T07:05:59;83.03;;;38.60;;
28007;SDS011;15333;50.010;20.020;2023-03-17T07:09:00;81.60;;;38.65;;
28007;SDS011;15333;50.010;20.020;2023-03-17T07:12:01;84.90;;;37.85;;
28007;SDS011;15333;50.010;20.020;2023-03-17T07:15:06;88.15;;;37.80;;
28007;SDS011;15333;50.010;20.020;2023-03-17T07:18:08;86.65;;;38.25;;
28007;SDS011;15333;50.010;20.020;2023-03-17T07:21:09;90.60;;;40.55;;
28007;SDS011;15333;50.010;20.020;2023-03-17T07:24:10;80.05;;;36.72;;
28007;SDS011;15333;50.010;20.020;2023-03-17T07:27:11;87.88;;;38.40;;
28007;SDS011;15333;50.010;20.020;2023-03-17T07:30:12;92.10;;;37.53;;
28007;SDS011;15333;50.010;20.020;2023-03-17T07:33:15;76.25;;;38.15;;
28007;SDS011;15333;50.010;20.020;2023-03-17T07:36:16;90.30;;;37.28;;
28007;SDS011;15333;50.010;20.020;2023-03-17T07:39:17;84.35;;;36.75;;
28007;SDS011;15333;50.010;20.020;2023-03-17T07:42:18;75.20;;;34.33;;
28007;SDS011;15333;50.010;20.020;2023-03-17T07:45:19;70.28;;;35.05;;
28007;SDS011;15333;50.010;20.020;2023-03-17T07:48:20;75.90;;;34.42;;
28007;SDS011;15333;50.010;20.020;2023-03-17T07:51:21;70.47;;;31.98;;
28007;SDS011;15333;50.010;20.020;2023-03-17T07:54:22;67.28;;;30.52;;
28007;SDS011;15333;50.010;20.020;2023-03-17T07:57:25;62.60;;;28.52;;
28007;SDS011;15333;50.010;20.020;2023-03-17T08:00:26;42.95;;;18.88;;
28007;SDS011;15333;50.010;20.020;2023-03-17T08:03:28;19.60;;;9.43;;
28007;SDS011;15333;50.010;20.020;2023-03-17T08:06:31;21.55;;;9.35;;
28007;SDS011;15333;50.010;20.020;2023-03-17T08:09:32;20.35;;;10.10;;
28007;SDS011;15333;50.010;20.020;2023-03-17T08:12:34;22.15;;;9.68;;
28007;SDS011;15333;50.010;20.020;2023-03-17T08:15:36;20.45;;;9.52;;
28007;SDS011;15333;50.010;20.020;2023-03-17T08:18:36;18.35;;;9.38;;
28007;SDS011;15333;50.010;20.020;2023-03-17T08:21:37;21.48;;;8.70;;
28007;SDS011;15333;50.010;20.020;2023-03-17T08:24:38;17.92;;;9.43;;
28007;SDS011;15333;50.010;20.020;2023-03-17T08:27:42;19.48;;;9.45;;
28007;SDS011;15333;50.010;20.020;2023-03-17T08:30:43;16.27;;;8.80;;
28007;SDS011;15333;50.010;20.020;2023-03-17T08:33:45;16.75;;;8.30;;
28007;SDS011;15333;50.010;20.020;2023-03-17T08:36:50;17.38;;;8.40;;
28007;SDS011;15333;50.010;20.020;2023-03-17T08:39:51;19.85;;;8.55;;
28007;SDS011;15333;50.010;20.020;2023-03-17T08:42:52;20.02;;;9.60;;
28007;SDS011;15333;50.010;20.020;2023-03-17T08:45:58;20.67;;;9.65;;
28007;SDS011;15333;50.010;20.020;2023-03-17T08:49:05;16.13;;;8.65;;
28007;SDS011;15333;50.010;20.020;2023-03-17T08:52:07;24.75;;;9.23;;
28007;SDS011;15333;50.010;20.020;2023-03-17T08:55:08;14.40;;;8.20;;
28007;SDS011;15333;50.010;20.020;2023-03-17T08:58:10;20.25;;;7.05;;
28007;SDS011;15333;50.010;20.020;2023-03-17T09:01:11;15.25;;;7.18;;
28007;SDS011;15333;50.010;20.020;2023-03-17T09:04:12;13.30;;;7.25;;
28007;SDS011;15333;50.010;20.020;2023-03-17T09:07:13;14.05;;;6.55;;
28007;SDS011;15333;50.010;20.020;2023-03-17T09:10:14;16.55;;;6.28;;
28007;SDS011;15333;50.010;20.020;2023-03-17T09:13:20;13.10;;;6.05;;
28007;SDS011;15333;50.010;20.020;2023-03-17T09:16:22;14.15;;;5.78;;
28007;SDS011;15333;50.010;20.020;2023-03-17T09:19:25;14.93;;;6.60;;
28007;SDS011;15333;50.010;20.020;2023-03-17T09:22:26;11.25;;;5.88;;
28007;SDS011;15333;50.010;20.020;2023-03-17T09:25:27;10.38;;;5.07;;
28007;SDS011;15333;50.010;20.020;2023-03-17T09:28:28;11.95;;;5.43;;
28007;SDS011;15333;50.010;20.020;2023-03-17T09:31:29;10.23;;;5.05;;
28007;SDS011;15333;50.010;20.020;2023-03-17T09:34:30;10.48;;;4.70;;
28007;SDS011;15333;50.010;20.020;2023-03-17T09:37:32;9.70;;;4.65;;
28007;SDS011;15333;50.010;20.020;2023-03-17T09:51:20;11.15;;;5.45;;
28007;SDS011;15333;50.010;20.020;2023-03-17T09:57:38;14.38;;;5.85;;
28007;SDS011;15333;50.010;20.020;2023-03-17T10:00:40;11.43;;;5.50;;
28007;SDS011;15333;50.010;20.020;2023-03-17T10:03:41;9.45;;;5.43;;
28007;SDS011;15333;50.010;20.020;2023-03-17T10:06:43;12.82;;;5.80;;
28007;SDS011;15333;50.010;20.020;2023-03-17T10:09:51;9.95;;;4.97;;
28007;SDS011;15333;50.010;20.020;2023-03-17T10:13:02;11.85;;;5.25;;
28007;SDS011;15333;50.010;20.020;2023-03-17T10:16:06;16.02;;;7.05;;
28007;SDS011;15333;50.010;20.020;2023-03-17T10:22:30;10.52;;;6.30;;
28007;SDS011;15333;50.010;20.020;2023-03-17T10:25:38;13.38;;;6.43;;
28007;SDS011;15333;50.010;20.020;2023-03-17T10:28:40;14.57;;;6.90;;
28007;SDS011;15333;50.010;20.020;2023-03-17T10:31:41;13.88;;;7.13;;
28007;SDS011;15333;50.010;20.020;2023-03-17T10:34:42;16.33;;;7.50;;
28007;SDS011;15333;50.010;20.020;2023-03-17T10:37:46;16.15;;;6.88;;
28007;SDS011;15333;50.010;20.020;2023-03-17T10:40:54;14.30;;;7.13;;
28007;SDS011;15333;50.010;20.020;2023-03-17T10:44:00;8.98;;;5.55;;
28007;SDS011;15333;50.010;20.020;2023-03-17T10:47:01;12.55;;;5.78;;
28007;SDS011;15333;50.010;20.020;2023-03-17T10:50:15;9.52;;;5.85;;
28007;SDS011;15333;50.010;20.020;2023-03-17T10:53:21;13.10;;;5.72;;
28007;SDS011;15333;50.010;20.020;2023-03-17T10:56:28;10.27;;;5.75;;
28007;SDS011;15333;50.010;20.020;2023-03-17T10:59:42;12.40;;;5.53;;
28007;SDS011;15333;50.010;20.020;2023-03-17T11:02:55;14.82;;;5.45;;
28007;SDS011;15333;50.010;20.020;2023-03-17T11:06:01;14.60;;;5.05;;
28007;SDS011;15333;50.010;20.020;2023-03-17T11:09:09;8.90;;;5.32;;
28007;SDS011;15333;50.010;20.020;2023-03-17T11:15:38;10.32;;;5.05;;
28007;SDS011;15333;50.010;20.020;2023-03-17T11:18:42;13.70;;;5.60;;
28007;SDS011;15333;50.010;20.020;2023-03-17T11:21:47;10.52;;;5.60;;
28007;SDS011;15333;50.010;20.020;2023-03-17T11:25:09;9.43;;;5.47;;
28007;SDS011;15333;50.010;20.020;2023-03-17T11:28:25;8.57;;;5.07;;
28007;SDS011;15333;50.010;20.020;2023-03-17T11:41:25;13.27;;;6.05;;
28007;SDS011;15333;50.010;20.020;2023-03-17T11:47:33;10.13;;;6.22;;
28007;SDS011;15333;50.010;20.020;2023-03-17T11:57:37;11.85;;;6.05;;
28007;SDS011;15333;50.010;20.020;2023-03-17T12:00:48;9.85;;;5.60;;
28007;SDS011;15333;50.010;20.020;2023-03-17T12:04:07;12.35;;;6.30;;
28007;SDS011;15333;50.010;20.020;2023-03-17T12:10:23;14.55;;;5.97;;
28007;SDS011;15333;50.010;20.020;2023-03-17T12:13:46;11.82;;;5.97;;
28007;SDS011;15333;50.010;20.020;2023-03-17T12:17:10;15.10;;;6.35;;
28007;SDS011;15333;50.010;20.020;2023-03-17T12:20:14;12.98;;;5.85;;
28007;SDS011;15333;50.010;20.020;2023-03-17T12:30:24;13.55;;;7.40;;
28007;SDS011;15333;50.010;20.020;2023-03-17T12:33:33;9.88;;;6.03;;
28007;SDS011;15333;50.010;20.020;2023-03-17T12:36:40;15.70;;;6.95;;
28007;SDS011;15333;50.010;20.020;2023-03-17T12:39:44;12.43;;;6.53;;
28007;SDS011;15333;50.010;20.020;2023-03-17T12:56:27;11.80;;;6.35;;
28007;SDS011;15333;50.010;20.020;2023-03-17T12:59:28;12.23;;;5.40;;
28007;SDS011;15333;50.010;20.020;2023-03-17T13:05:37;12.70;;;6.13;;
28007;SDS011;15333;50.010;20.020;2023-03-17T13:08:39;12.10;;;6.13;;
28007;SDS011;15333;50.010;20.020;2023-03-17T13:11:45;13.23;;;6.03;;
28007;SDS011;15333;50.010;20.020;2023-03-17T13:14:47;14.80;;;6.50;;
28007;SDS011;15333;50.010;20.020;2023-03-17T13:18:09;11.30;;;5.68;;
28007;SDS011;15333;50.010;20.020;2023-03-17T13:21:12;10.65;;;5.72;;
28007;SDS011;15333;50.010;20.020;2023-03-17T13:30:41;16.73;;;7.45;;
28007;SDS011;15333;50.010;20.020;2023-03-17T13:33:50;12.02;;;5.85;;
28007;SDS011;15333;50.010;20.020;2023-03-17T13:37:00;12.43;;;6.15;;
28007;SDS011;15333;50.010;20.020;2023-03-17T13:50:33;13.15;;;5.75;;
28007;SDS011;15333;50.010;20.020;2023-03-17T13:53:38;10.48;;;5.55;;
28007;SDS011;15333;50.010;20.020;2023-03-17T13:59:54;14.02;;;5.68;;
28007;SDS011;15333;50.010;20.020;2023-03-17T14:03:02;10.57;;;5.38;;
28007;SDS011;15333;50.010;20.020;2023-03-17T14:06:08;10.80;;;5.88;;
28007;SDS011;15333;50.010;20.020;2023-03-17T14:09:22;13.13;;;5.95;;
28007;SDS011;15333;50.010;20.020;2023-03-17T14:12:45;13.10;;;6.22;;
28007;SDS011;15333;50.010;20.020;2023-03-17T14:16:04;11.32;;;5.78;;
28007;SDS011;15333;50.010;20.020;2023-03-17T14:19:24;11.38;;;5.70;;
28007;SDS011;15333;50.010;20.020;2023-03-17T14:22:27;11.98;;;5.45;;
28007;SDS011;15333;50.010;20.020;2023-03-17T14:25:32;12.57;;;5.28;;
28007;SDS011;15333;50.010;20.020;2023-03-17T14:28:35;12.40;;;5.63;;
28007;SDS011;15333;50.010;20.020;2023-03-17T14:31:37;11.00;;;5.03;;
28007;SDS011;15333;50.010;20.020;2023-03-17T14:34:45;11.95;;;4.78;;
28007;SDS011;15333;50.010;20.020;2023-03-17T14:37:52;9.52;;;4.70;;
28007;SDS011;15333;50.010;20.020;2023-03-17T14:44:07;10.32;;;4.82;;
28007;SDS011;15333;50.010;20.020;2023-03-17T14:47:12;11.95;;;4.75;;
28007;SDS011;15333;50.010;20.020;2023-03-17T14:53:30;7.57;;;4.78;;
28007;SDS011;15333;50.010;20.020;2023-03-17T14:56:36;7.72;;;4.22;;
28007;SDS011;15333;50.010;20.020;2023-03-17T14:59:41;10.52;;;4.55;;
28007;SDS011;15333;50.010;20.020;2023-03-17T15:02:54;9.35;;;5.15;;
28007;SDS011;15333;50.010;20.020;2023-03-17T15:09:27;10.02;;;5.35;;
28007;SDS011;15333;50.010;20.020;2023-03-17T15:12:39;10.88;;;5.35;;
28007;SDS011;15333;50.010;20.020;2023-03-17T15:15:40;10.55;;;4.97;;
28007;SDS011;15333;50.010;20.020;2023-03-17T15:18:43;12.20;;;5.13;;
28007;SDS011;15333;50.010;20.020;2023-03-17T15:21:44;11.85;;;4.78;;
28007;SDS011;15333;50.010;20.020;2023-03-17T15:24:50;7.95;;;4.18;;
28007;SDS011;15333;50.010;20.020;2023-03-17T15:28:05;15.95;;;5.75;;
28007;SDS011;15333;50.010;20.020;2023-03-17T15:31:13;7.88;;;4.97;;
28007;SDS011;15333;50.010;20.020;2023-03-17T15:34:14;12.30;;;4.88;;
28007;SDS011;15333;50.010;20.020;2023-03-17T15:40:26;13.00;;;5.07;;
28007;SDS011;15333;50.010;20.020;2023-03-17T15:43:27;11.20;;;4.50;;
28007;SDS011;15333;50.010;20.020;2023-03-17T15:46:28;9.73;;;4.60;;
28007;SDS011;15333;50.010;20.020;2023-03-17T15:49:33;10.35;;;4.78;;
28007;SDS011;15333;50.010;20.020;2023-03-17T15:52:34;9.23;;;5.13;;
28007;SDS011;15333;50.010;20.020;2023-03-17T15:55:35;11.38;;;4.72;;
28007;SDS011;15333;50.010;20.020;2023-03-17T15:58:36;12.18;;;5.78;;
28007;SDS011;15333;50.010;20.020;2023-03-17T16:01:37;11.07;;;5.82;;
28007;SDS011;15333;50.010;20.020;2023-03-17T16:04:38;14.75;;;6.55;;
28007;SDS011;15333;50.010;20.020;2023-03-17T16:07:40;19.73;;;8.52;;
28007;SDS011;15333;50.010;20.020;2023-03-17T16:10:41;22.83;;;10.48;;
28007;SDS011;15333;50.010;20.020;2023-03-17T16:13:42;30.30;;;14.68;;
28007;SDS011;15333;50.010;20.020;2023-03-17T16:16:43;28.10;;;14.35;;
28007;SDS011;15333;50.010;20.020;2023-03-17T16:19:45;26.73;;;13.43;;
28007;SDS011;15333;50.010;20.020;2023-03-17T16:22:47;30.50;;;14.55;;
28007;SDS011;15333;50.010;20.020;2023-03-17T16:25:49;32.78;;;14.65;;
28007;SDS011;15333;50.010;20.020;2023-03-17T16:28:50;33.15;;;14.95;;
28007;SDS011;15333;50.010;20.020;2023-03-17T16:31:51;30.38;;;13.02;;
28007;SDS011;15333;50.010;20.020;2023-03-17T16:34:52;24.23;;;10.25;;
28007;SDS011;15333;50.010;20.020;2023-03-17T16:37:53;20.05;;;10.00;;
28007;SDS011;15333;50.010;20.020;2023-03-17T16:40:58;16.08;;;8.70;;
28007;SDS011;15333;50.010;20.020;2023-03-17T16:44:04;19.50;;;8.65;;
28007;SDS011;15333;50.010;20.020;2023-03-17T16:47:08;17.48;;;8.40;;
28007;SDS011;15333;50.010;20.020;2023-03-17T16:50:18;14.43;;;7.53;;
28007;SDS011;15333;50.010;20.020;2023-03-17T16:53:24;19.67;;;8.45;;
28007;SDS011;15333;50.010;20.020;2023-03-17T16:56:26;17.85;;;9.40;;
28007;SDS011;15333;50.010;20.020;2023-03-17T16:59:27;21.98;;;9.43;;
28007;SDS011;15333;50.010;20.020;2023-03-17T17:02:31;23.77;;;10.43;;
28007;SDS011;15333;50.010;20.020;2023-03-17T17:05:32;27.20;;;10.45;;
28007;SDS011;15333;50.010;20.020;2023-03-17T17:08:33;21.15;;;9.98;;
28007;SDS011;15333;50.010;20.020;2023-03-17T17:11:33;21.63;;;11.13;;
28007;SDS011;15333;50.010;20.020;2023-03-17T17:14:35;22.48;;;10.68;;
28007;SDS011;15333;50.010;20.020;2023-03-17T17:17:37;28.90;;;12.45;;
28007;SDS011;15333;50.010;20.020;2023-03-17T17:20:40;24.23;;;11.52;;
28007;SDS011;15333;50.010;20.020;2023-03-17T17:23:42;28.63;;;12.43;;
28007;SDS011;15333;50.010;20.020;2023-03-17T17:26:43;29.88;;;13.18;;
28007;SDS011;15333;50.010;20.020;2023-03-17T17:29:44;35.25;;;13.90;;
28007;SDS011;15333;50.010;20.020;2023-03-17T17:32:45;28.08;;;13.07;;
28007;SDS011;15333;50.010;20.020;2023-03-17T17:35:47;31.30;;;12.65;;
28007;SDS011;15333;50.010;20.020;2023-03-17T17:38:48;26.00;;;12.30;;
28007;SDS011;15333;50.010;20.020;2023-03-17T17:41:51;30.38;;;11.88;;
28007;SDS011;15333;50.010;20.020;2023-03-17T17:44:52;30.95;;;12.95;;
28007;SDS011;15333;50.010;20.020;2023-03-17T17:47:53;29.65;;;13.57;;
28007;SDS011;15333;50.010;20.020;2023-03-17T17:50:54;29.95;;;14.13;;
28007;SDS011;15333;50.010;20.020;2023-03-17T17:53:56;30.60;;;13.95;;
28007;SDS011;15333;50.010;20.020;2023-03-17T17:56:57;31.35;;;15.18;;
28007;SDS011;15333;50.010;20.020;2023-03-17T17:59:58;32.08;;;15.48;;
28007;SDS011;15333;50.010;20.020;2023-03-17T18:02:59;35.78;;;16.67;;
28007;SDS011;15333;50.010;20.020;2023-03-17T18:06:00;37.35;;;17.98;;
28007;SDS011;15333;50.010;20.020;2023-03-17T18:09:01;39.05;;;19.67;;
28007;SDS011;15333;50.010;20.020;2023-03-17T18:12:04;47.97;;;21.15;;
28007;SDS011;15333;50.010;20.020;2023-03-17T18:15:06;46.13;;;21.52;;
28007;SDS011;15333;50.010;20.020;2023-03-17T18:18:07;51.53;;;22.52;;
28007;SDS011;15333;50.010;20.020;2023-03-17T18:21:08;44.65;;;21.95;;
28007;SDS011;15333;50.010;20.020;2023-03-17T18:24:09;46.22;;;21.35;;
28007;SDS011;15333;50.010;20.020;2023-03-17T18:27:10;48.17;;;22.58;;
28007;SDS011;15333;50.010;20.020;2023-03-17T18:30:13;47.15;;;23.15;;
28007;SDS011;15333;50.010;20.020;2023-03-17T18:33:20;48.47;;;23.77;;
28007;SDS011;15333;50.010;20.020;2023-03-17T18:36:21;46.88;;;23.67;;
28007;SDS011;15333;50.010;20.020;2023-03-17T18:39:23;52.30;;;25.55;;
28007;SDS011;15333;50.010;20.020;2023-03-17T18:42:24;52.13;;;24.83;;
28007;SDS011;15333;50.010;20.020;2023-03-17T18:45:25;57.42;;;25.55;;
28007;SDS011;15333;50.010;20.020;2023-03-17T18:48:26;55.13;;;26.98;;
28007;SDS011;15333;50.010;20.020;2023-03-17T18:51:27;51.47;;;25.05;;
28007;SDS011;15333;50.010;20.020;2023-03-17T18:54:28;56.58;;;24.90;;
28007;SDS011;15333;50.010;20.020;2023-03-17T18:57:29;50.90;;;24.40;;
28007;SDS011;15333;50.010;20.020;2023-03-17T19:00:30;53.20;;;24.25;;
28007;SDS011;15333;50.010;20.020;2023-03-17T19:03:32;52.33;;;24.25;;
28007;SDS011;15333;50.010;20.020;2023-03-17T19:06:33;52.47;;;23.33;;
28007;SDS011;15333;50.010;20.020;2023-03-17T19:09:39;51.55;;;23.95;;
28007;SDS011;15333;50.010;20.020;2023-03-17T19:12:41;49.90;;;22.98;;
28007;SDS011;15333;50.010;20.020;2023-03-17T19:15:43;54.22;;;22.23;;
28007;SDS011;15333;50.010;20.020;2023-03-17T19:18:45;46.28;;;22.00;;
28007;SDS011;15333;50.010;20.020;2023-03-17T19:21:46;51.20;;;21.20;;
28007;SDS011;15333;50.010;20.020;2023-03-17T19:24:47;48.95;;;22.17;;